sensor_id;sensor_type;location;lat;lon;timestamp;P1;durP1;ratioP1;P2;durP2;ratioP2
20004;SDS011;69160;45.498;-73.582;2023-08-17T00:00:42;6.77;;;4.77;;
20004;SDS011;69160;45.498;-73.582;2023-08-17T00:03:09;7.10;;;4.90;;
20004;SDS011;69160;45.498;-73.582;2023-08-17T00:05:36;6.30;;;4.40;;
20004;SDS011;69160;45.498;-73.582;2023-08-17T00:08:03;4.30;;;2.83;;
20004;SDS011;69160;45.498;-73.582;2023-08-17T00:10:29;5.70;;;3.80;;
20004;SDS011;69160;45.498;-73.582;2023-08-17T00:12:55;6.77;;;3.60;;
20004;SDS011;69160;45.498;-73.582;2023-08-17T00:15:22;3.77;;;2.47;;
20004;SDS011;69160;45.498;-73.582;2023-08-17T00:17:48;4.80;;;2.40;;
20004;SDS011;69160;45.498;-73.582;2023-08-17T00:20:14;3.90;;;3.00;;
20004;SDS011;69160;45.498;-73.582;2023-08-17T00:22:41;4.03;;;2.53;;
20004;SDS011;69160;45.498;-73.582;2023-08-17T00:25:07;5.60;;;3.20;;
20004;SDS011;69160;45.498;-73.582;2023-08-17T00:27:33;4.37;;;2.87;;
20004;SDS011;69160;45.498;-73.582;2023-08-17T00:30:00;11.30;;;2.20;;
20004;SDS011;69160;45.498;-73.582;2023-08-17T00:32:26;5.43;;;2.40;;
20004;SDS011;69160;45.498;-73.582;2023-08-17T00:34:52;3.83;;;2.13;;
20004;SDS011;69160;45.498;-73.582;2023-08-17T00:37:19;2.20;;;2.00;;
20004;SDS011;69160;45.498;-73.582;2023-08-17T00:39:45;4.10;;;2.23;;
20004;SDS011;69160;45.498;-73.582;2023-08-17T00:42:11;3.27;;;2.17;;
20004;SDS011;69160;45.498;-73.582;2023-08-17T00:44:37;2.97;;;1.83;;
20004;SDS011;69160;45.498;-73.582;2023-08-17T00:47:03;4.00;;;2.10;;
20004;SDS011;69160;45.498;-73.582;2023-08-17T00:49:30;2.57;;;1.30;;
20004;SDS011;69160;45.498;-73.582;2023-08-17T00:51:56;4.93;;;1.80;;
20004;SDS011;69160;45.498;-73.582;2023-08-17T00:54:24;1.70;;;1.43;;
20004;SDS011;69160;45.498;-73.582;2023-08-17T00:56:52;3.47;;;2.00;;
20004;SDS011;69160;45.498;-73.582;2023-08-17T00:59:31;5.93;;;2.00;;
20004;SDS011;69160;45.498;-73.582;2023-08-17T01:01:57;4.00;;;2.10;;
20004;SDS011;69160;45.498;-73.582;2023-08-17T01:04:24;2.30;;;1.60;;
20004;SDS011;69160;45.498;-73.582;2023-08-17T01:06:50;2.70;;;1.50;;
20004;SDS011;69160;45.498;-73.582;2023-08-17T01:09:16;3.73;;;1.50;;
20004;SDS011;69160;45.498;-73.582;2023-08-17T01:11:48;2.43;;;1.63;;
20004;SDS011;69160;45.498;-73.582;2023-08-17T01:16:58;2.57;;;1.40;;
20004;SDS011;69160;45.498;-73.582;2023-08-17T01:19:36;2.13;;;1.30;;
20004;SDS011;69160;45.498;-73.582;2023-08-17T01:22:05;1.50;;;1.30;;
20004;SDS011;69160;45.498;-73.582;2023-08-17T01:24:33;1.90;;;1.30;;
20004;SDS011;69160;45.498;-73.582;2023-08-17T01:26:59;2.07;;;1.47;;
20004;SDS011;69160;45.498;-73.582;2023-08-17T01:29:26;2.17;;;1.53;;
20004;SDS011;69160;45.498;-73.582;2023-08-17T01:34:33;1.70;;;1.60;;
20004;SDS011;69160;45.498;-73.582;2023-08-17T01:37:04;2.73;;;1.30;;
20004;SDS011;69160;45.498;-73.582;2023-08-17T01:39:37;2.27;;;1.43;;
20004;SDS011;69160;45.498;-73.582;2023-08-17T01:42:08;2.20;;;1.43;;
20004;SDS011;69160;45.498;-73.582;2023-08-17T01:44:36;1.67;;;1.40;;
20004;SDS011;69160;45.498;-73.582;2023-08-17T01:47:02;1.90;;;1.63;;
20004;SDS011;69160;45.498;-73.582;2023-08-17T01:49:29;2.33;;;1.60;;
20004;SDS011;69160;45.498;-73.582;2023-08-17T01:51:55;1.23;;;1.10;;
20004;SDS011;69160;45.498;-73.582;2023-08-17T01:54:22;2.13;;;1.30;;
20004;SDS011;69160;45.498;-73.582;2023-08-17T01:56:49;2.07;;;1.23;;
20004;SDS011;69160;45.498;-73.582;2023-08-17T01:59:15;1.47;;;1.37;;
20004;SDS011;69160;45.498;-73.582;2023-08-17T02:01:41;1.60;;;1.20;;
20004;SDS011;69160;45.498;-73.582;2023-08-17T02:04:07;1.60;;;1.30;;
20004;SDS011;69160;45.498;-73.582;2023-08-17T02:06:34;1.43;;;1.13;;
20004;SDS011;69160;45.498;-73.582;2023-08-17T02:09:00;1.43;;;1.07;;
20004;SDS011;69160;45.498;-73.582;2023-08-17T02:11:26;1.20;;;1.10;;
20004;SDS011;69160;45.498;-73.582;2023-08-17T02:13:52;1.57;;;1.20;;
20004;SDS011;69160;45.498;-73.582;2023-08-17T02:16:18;1.33;;;1.23;;
20004;SDS011;69160;45.498;-73.582;2023-08-17T02:18:44;1.77;;;1.40;;
20004;SDS011;69160;45.498;-73.582;2023-08-17T02:21:10;1.30;;;1.20;;
20004;SDS011;69160;45.498;-73.582;2023-08-17T02:23:36;1.47;;;1.20;;
20004;SDS011;69160;45.498;-73.582;2023-08-17T02:26:02;1.40;;;1.17;;
20004;SDS011;69160;45.498;-73.582;2023-08-17T02:28:29;2.43;;;1.27;;
20004;SDS011;69160;45.498;-73.582;2023-08-17T02:30:58;1.80;;;1.33;;
20004;SDS011;69160;45.498;-73.582;2023-08-17T02:33:24;1.17;;;1.07;;
20004;SDS011;69160;45.498;-73.582;2023-08-17T02:35:51;1.27;;;1.17;;
20004;SDS011;69160;45.498;-73.582;2023-08-17T02:38:17;1.53;;;1.30;;
20004;SDS011;69160;45.498;-73.582;2023-08-17T02:40:43;1.10;;;1.00;;
20004;SDS011;69160;45.498;-73.582;2023-08-17T02:43:10;1.53;;;1.37;;
20004;SDS011;69160;45.498;-73.582;2023-08-17T02:45:36;1.57;;;1.17;;
20004;SDS011;69160;45.498;-73.582;2023-08-17T02:48:02;1.10;;;1.00;;
20004;SDS011;69160;45.498;-73.582;2023-08-17T02:50:28;1.30;;;1.20;;
20004;SDS011;69160;45.498;-73.582;2023-08-17T02:52:54;1.33;;;1.23;;
20004;SDS011;69160;45.498;-73.582;2023-08-17T02:55:21;2.53;;;1.50;;
20004;SDS011;69160;45.498;-73.582;2023-08-17T02:57:47;1.07;;;1.00;;
20004;SDS011;69160;45.498;-73.582;2023-08-17T03:00:13;4.00;;;1.40;;
20004;SDS011;69160;45.498;-73.582;2023-08-17T03:02:39;1.20;;;1.10;;
20004;SDS011;69160;45.498;-73.582;2023-08-17T03:05:06;1.57;;;1.13;;
20004;SDS011;69160;45.498;-73.582;2023-08-17T03:07:32;1.20;;;1.10;;
20004;SDS011;69160;45.498;-73.582;2023-08-17T03:09:58;1.57;;;1.20;;
20004;SDS011;69160;45.498;-73.582;2023-08-17T03:12:24;1.20;;;1.10;;
20004;SDS011;69160;45.498;-73.582;2023-08-17T03:14:50;1.53;;;1.30;;
20004;SDS011;69160;45.498;-73.582;2023-08-17T03:17:16;1.67;;;1.40;;
20004;SDS011;69160;45.498;-73.582;2023-08-17T03:19:43;2.03;;;1.23;;
20004;SDS011;69160;45.498;-73.582;2023-08-17T03:22:09;1.27;;;1.17;;
20004;SDS011;69160;45.498;-73.582;2023-08-17T03:24:35;1.80;;;1.30;;
20004;SDS011;69160;45.498;-73.582;2023-08-17T03:27:01;2.73;;;1.40;;
20004;SDS011;69160;45.498;-73.582;2023-08-17T03:29:27;1.20;;;1.10;;
20004;SDS011;69160;45.498;-73.582;2023-08-17T03:31:53;1.53;;;1.43;;
20004;SDS011;69160;45.498;-73.582;2023-08-17T03:34:19;1.37;;;1.27;;
20004;SDS011;69160;45.498;-73.582;2023-08-17T03:36:45;1.97;;;1.17;;
20004;SDS011;69160;45.498;-73.582;2023-08-17T03:39:11;1.50;;;1.30;;
20004;SDS011;69160;45.498;-73.582;2023-08-17T03:41:38;1.33;;;1.23;;
20004;SDS011;69160;45.498;-73.582;2023-08-17T03:44:04;1.33;;;1.20;;
20004;SDS011;69160;45.498;-73.582;2023-08-17T03:46:31;1.40;;;1.30;;
20004;SDS011;69160;45.498;-73.582;2023-08-17T03:48:57;1.40;;;1.30;;
20004;SDS011;69160;45.498;-73.582;2023-08-17T03:51:23;1.20;;;1.10;;
20004;SDS011;69160;45.498;-73.582;2023-08-17T03:53:49;1.47;;;1.13;;
20004;SDS011;69160;45.498;-73.582;2023-08-17T03:56:16;1.23;;;0.90;;
20004;SDS011;69160;45.498;-73.582;2023-08-17T03:58:42;1.20;;;1.00;;
20004;SDS011;69160;45.498;-73.582;2023-08-17T04:01:09;1.93;;;1.30;;
20004;SDS011;69160;45.498;-73.582;2023-08-17T04:03:36;1.17;;;1.07;;
20004;SDS011;69160;45.498;-73.582;2023-08-17T04:06:06;1.10;;;1.00;;
20004;SDS011;69160;45.498;-73.582;2023-08-17T04:08:35;1.63;;;1.03;;
20004;SDS011;69160;45.498;-73.582;2023-08-17T04:11:02;0.93;;;0.80;;
20004;SDS011;69160;45.498;-73.582;2023-08-17T04:13:29;1.20;;;1.10;;
20004;SDS011;69160;45.498;-73.582;2023-08-17T04:15:55;2.47;;;1.57;;
20004;SDS011;69160;45.498;-73.582;2023-08-17T04:18:21;1.23;;;1.07;;
20004;SDS011;69160;45.498;-73.582;2023-08-17T04:20:47;2.20;;;1.10;;
20004;SDS011;69160;45.498;-73.582;2023-08-17T04:23:14;1.30;;;1.17;;
20004;SDS011;69160;45.498;-73.582;2023-08-17T04:25:40;2.63;;;1.00;;
20004;SDS011;69160;45.498;-73.582;2023-08-17T04:28:07;1.43;;;1.30;;
20004;SDS011;69160;45.498;-73.582;2023-08-17T04:30:33;2.43;;;1.63;;
20004;SDS011;69160;45.498;-73.582;2023-08-17T04:32:59;1.60;;;1.20;;
20004;SDS011;69160;45.498;-73.582;2023-08-17T04:35:25;2.13;;;0.97;;
20004;SDS011;69160;45.498;-73.582;2023-08-17T04:37:51;1.33;;;1.17;;
20004;SDS011;69160;45.498;-73.582;2023-08-17T04:40:17;3.63;;;1.33;;
20004;SDS011;69160;45.498;-73.582;2023-08-17T04:42:44;2.00;;;1.13;;
20004;SDS011;69160;45.498;-73.582;2023-08-17T04:45:10;2.07;;;1.50;;
20004;SDS011;69160;45.498;-73.582;2023-08-17T04:47:36;1.47;;;1.37;;
20004;SDS011;69160;45.498;-73.582;2023-08-17T04:50:03;1.33;;;1.23;;
20004;SDS011;69160;45.498;-73.582;2023-08-17T04:52:29;1.30;;;1.20;;
20004;SDS011;69160;45.498;-73.582;2023-08-17T04:54:55;1.50;;;1.10;;
20004;SDS011;69160;45.498;-73.582;2023-08-17T04:57:21;1.77;;;1.40;;
20004;SDS011;69160;45.498;-73.582;2023-08-17T04:59:48;1.50;;;1.37;;
20004;SDS011;69160;45.498;-73.582;2023-08-17T05:02:14;1.20;;;1.10;;
20004;SDS011;69160;45.498;-73.582;2023-08-17T05:04:40;1.83;;;1.33;;
20004;SDS011;69160;45.498;-73.582;2023-08-17T05:07:07;1.40;;;1.10;;
20004;SDS011;69160;45.498;-73.582;2023-08-17T05:09:33;1.20;;;1.10;;
20004;SDS011;69160;45.498;-73.582;2023-08-17T05:11:59;4.30;;;1.20;;
20004;SDS011;69160;45.498;-73.582;2023-08-17T05:14:25;1.17;;;1.07;;
20004;SDS011;69160;45.498;-73.582;2023-08-17T05:16:52;1.33;;;1.10;;
20004;SDS011;69160;45.498;-73.582;2023-08-17T05:19:18;2.60;;;1.20;;
20004;SDS011;69160;45.498;-73.582;2023-08-17T05:21:44;1.33;;;1.23;;
20004;SDS011;69160;45.498;-73.582;2023-08-17T05:24:10;2.03;;;1.77;;
20004;SDS011;69160;45.498;-73.582;2023-08-17T05:26:36;2.17;;;1.30;;
20004;SDS011;69160;45.498;-73.582;2023-08-17T05:29:03;1.90;;;1.70;;
20004;SDS011;69160;45.498;-73.582;2023-08-17T05:31:29;1.47;;;1.37;;
20004;SDS011;69160;45.498;-73.582;2023-08-17T05:33:55;2.13;;;1.40;;
20004;SDS011;69160;45.498;-73.582;2023-08-17T05:36:21;1.63;;;1.33;;
20004;SDS011;69160;45.498;-73.582;2023-08-17T05:38:47;1.73;;;1.40;;
20004;SDS011;69160;45.498;-73.582;2023-08-17T05:41:13;1.07;;;0.97;;
20004;SDS011;69160;45.498;-73.582;2023-08-17T05:43:41;1.30;;;1.20;;
20004;SDS011;69160;45.498;-73.582;2023-08-17T05:46:07;1.30;;;1.20;;
20004;SDS011;69160;45.498;-73.582;2023-08-17T05:48:34;1.33;;;1.23;;
20004;SDS011;69160;45.498;-73.582;2023-08-17T05:51:00;1.63;;;1.53;;
20004;SDS011;69160;45.498;-73.582;2023-08-17T05:53:26;1.20;;;1.10;;
20004;SDS011;69160;45.498;-73.582;2023-08-17T05:55:52;1.33;;;1.20;;
20004;SDS011;69160;45.498;-73.582;2023-08-17T05:58:18;1.70;;;1.50;;
20004;SDS011;69160;45.498;-73.582;2023-08-17T06:00:44;1.37;;;1.27;;
20004;SDS011;69160;45.498;-73.582;2023-08-17T06:03:10;1.97;;;1.87;;
20004;SDS011;69160;45.498;-73.582;2023-08-17T06:05:37;2.20;;;2.00;;
20004;SDS011;69160;45.498;-73.582;2023-08-17T06:08:04;2.80;;;2.10;;
20004;SDS011;69160;45.498;-73.582;2023-08-17T06:10:31;2.10;;;1.73;;
20004;SDS011;69160;45.498;-73.582;2023-08-17T06:12:57;1.60;;;1.50;;
20004;SDS011;69160;45.498;-73.582;2023-08-17T06:15:23;1.33;;;1.23;;
20004;SDS011;69160;45.498;-73.582;2023-08-17T06:17:49;2.90;;;2.07;;
20004;SDS011;69160;45.498;-73.582;2023-08-17T06:20:16;1.73;;;1.53;;
20004;SDS011;69160;45.498;-73.582;2023-08-17T06:22:43;2.07;;;1.90;;
20004;SDS011;69160;45.498;-73.582;2023-08-17T06:25:09;2.17;;;1.63;;
20004;SDS011;69160;45.498;-73.582;2023-08-17T06:27:36;3.70;;;2.00;;
20004;SDS011;69160;45.498;-73.582;2023-08-17T06:30:02;2.40;;;2.10;;
20004;SDS011;69160;45.498;-73.582;2023-08-17T06:32:29;2.93;;;2.27;;
20004;SDS011;69160;45.498;-73.582;2023-08-17T06:34:56;3.50;;;2.57;;
20004;SDS011;69160;45.498;-73.582;2023-08-17T06:37:22;2.40;;;2.20;;
20004;SDS011;69160;45.498;-73.582;2023-08-17T06:39:49;2.13;;;1.90;;
20004;SDS011;69160;45.498;-73.582;2023-08-17T06:42:15;2.27;;;2.07;;
20004;SDS011;69160;45.498;-73.582;2023-08-17T06:44:41;2.20;;;2.00;;
20004;SDS011;69160;45.498;-73.582;2023-08-17T06:47:08;1.90;;;1.80;;
20004;SDS011;69160;45.498;-73.582;2023-08-17T06:49:34;2.40;;;1.50;;
20004;SDS011;69160;45.498;-73.582;2023-08-17T06:52:00;1.90;;;1.70;;
20004;SDS011;69160;45.498;-73.582;2023-08-17T06:54:27;2.20;;;2.00;;
20004;SDS011;69160;45.498;-73.582;2023-08-17T06:56:53;2.37;;;2.00;;
20004;SDS011;69160;45.498;-73.582;2023-08-17T06:59:19;2.97;;;2.63;;
20004;SDS011;69160;45.498;-73.582;2023-08-17T07:01:45;1.50;;;1.40;;
20004;SDS011;69160;45.498;-73.582;2023-08-17T07:04:11;2.70;;;1.87;;
20004;SDS011;69160;45.498;-73.582;2023-08-17T07:06:37;2.57;;;2.20;;
20004;SDS011;69160;45.498;-73.582;2023-08-17T07:09:04;2.20;;;2.00;;
20004;SDS011;69160;45.498;-73.582;2023-08-17T07:11:30;3.23;;;2.30;;
20004;SDS011;69160;45.498;-73.582;2023-08-17T07:13:57;5.80;;;2.47;;
20004;SDS011;69160;45.498;-73.582;2023-08-17T07:16:23;2.87;;;2.63;;
20004;SDS011;69160;45.498;-73.582;2023-08-17T07:18:49;3.77;;;3.10;;
20004;SDS011;69160;45.498;-73.582;2023-08-17T07:21:15;3.87;;;2.77;;
20004;SDS011;69160;45.498;-73.582;2023-08-17T07:23:43;3.43;;;3.03;;
20004;SDS011;69160;45.498;-73.582;2023-08-17T07:26:11;2.73;;;2.53;;
20004;SDS011;69160;45.498;-73.582;2023-08-17T07:28:37;2.97;;;2.70;;
20004;SDS011;69160;45.498;-73.582;2023-08-17T07:31:03;3.83;;;3.13;;
20004;SDS011;69160;45.498;-73.582;2023-08-17T07:33:31;2.93;;;2.63;;
20004;SDS011;69160;45.498;-73.582;2023-08-17T07:35:57;3.50;;;2.87;;
20004;SDS011;69160;45.498;-73.582;2023-08-17T07:38:23;5.10;;;3.00;;
20004;SDS011;69160;45.498;-73.582;2023-08-17T07:40:49;3.50;;;2.80;;
20004;SDS011;69160;45.498;-73.582;2023-08-17T07:43:16;3.03;;;2.80;;
20004;SDS011;69160;45.498;-73.582;2023-08-17T07:45:42;4.70;;;2.70;;
20004;SDS011;69160;45.498;-73.582;2023-08-17T07:48:08;4.20;;;2.83;;
20004;SDS011;69160;45.498;-73.582;2023-08-17T07:50:35;2.90;;;2.70;;
20004;SDS011;69160;45.498;-73.582;2023-08-17T07:53:01;3.70;;;2.80;;
20004;SDS011;69160;45.498;-73.582;2023-08-17T07:55:27;2.80;;;2.47;;
20004;SDS011;69160;45.498;-73.582;2023-08-17T07:57:53;2.60;;;2.40;;
20004;SDS011;69160;45.498;-73.582;2023-08-17T08:00:19;3.77;;;2.80;;
20004;SDS011;69160;45.498;-73.582;2023-08-17T08:02:46;3.50;;;2.90;;
20004;SDS011;69160;45.498;-73.582;2023-08-17T08:05:12;2.83;;;2.60;;
20004;SDS011;69160;45.498;-73.582;2023-08-17T08:07:39;2.63;;;2.43;;
20004;SDS011;69160;45.498;-73.582;2023-08-17T08:10:06;2.27;;;2.07;;
20004;SDS011;69160;45.498;-73.582;2023-08-17T08:12:33;2.30;;;2.10;;
20004;SDS011;69160;45.498;-73.582;2023-08-17T08:14:59;2.10;;;2.00;;
20004;SDS011;69160;45.498;-73.582;2023-08-17T08:17:25;2.60;;;2.40;;
20004;SDS011;69160;45.498;-73.582;2023-08-17T08:19:51;2.50;;;2.30;;
20004;SDS011;69160;45.498;-73.582;2023-08-17T08:22:19;5.77;;;2.70;;
20004;SDS011;69160;45.498;-73.582;2023-08-17T08:24:45;3.03;;;2.73;;
20004;SDS011;69160;45.498;-73.582;2023-08-17T08:27:11;2.47;;;2.27;;
20004;SDS011;69160;45.498;-73.582;2023-08-17T08:29:37;2.93;;;2.30;;
20004;SDS011;69160;45.498;-73.582;2023-08-17T08:32:04;2.43;;;2.20;;
20004;SDS011;69160;45.498;-73.582;2023-08-17T08:34:31;2.67;;;2.47;;
20004;SDS011;69160;45.498;-73.582;2023-08-17T08:36:57;2.10;;;1.83;;
20004;SDS011;69160;45.498;-73.582;2023-08-17T08:39:25;2.40;;;2.20;;
20004;SDS011;69160;45.498;-73.582;2023-08-17T08:41:52;2.00;;;1.80;;
20004;SDS011;69160;45.498;-73.582;2023-08-17T08:44:18;2.63;;;2.43;;
20004;SDS011;69160;45.498;-73.582;2023-08-17T08:46:45;6.20;;;2.40;;
20004;SDS011;69160;45.498;-73.582;2023-08-17T08:49:13;2.23;;;2.03;;
20004;SDS011;69160;45.498;-73.582;2023-08-17T08:51:46;4.03;;;2.40;;
20004;SDS011;69160;45.498;-73.582;2023-08-17T08:54:18;3.13;;;2.60;;
20004;SDS011;69160;45.498;-73.582;2023-08-17T08:56:51;2.60;;;2.40;;
20004;SDS011;69160;45.498;-73.582;2023-08-17T08:59:23;3.00;;;2.70;;
20004;SDS011;69160;45.498;-73.582;2023-08-17T09:01:50;2.37;;;2.17;;
20004;SDS011;69160;45.498;-73.582;2023-08-17T09:04:16;1.70;;;1.60;;
20004;SDS011;69160;45.498;-73.582;2023-08-17T09:06:42;1.97;;;1.80;;
20004;SDS011;69160;45.498;-73.582;2023-08-17T09:09:09;2.50;;;2.30;;
20004;SDS011;69160;45.498;-73.582;2023-08-17T09:11:36;2.60;;;2.40;;
20004;SDS011;69160;45.498;-73.582;2023-08-17T09:14:03;2.47;;;2.20;;
20004;SDS011;69160;45.498;-73.582;2023-08-17T09:16:32;1.87;;;1.70;;
20004;SDS011;69160;45.498;-73.582;2023-08-17T09:18:58;3.13;;;2.60;;
20004;SDS011;69160;45.498;-73.582;2023-08-17T09:21:24;3.53;;;2.30;;
20004;SDS011;69160;45.498;-73.582;2023-08-17T09:23:54;2.77;;;2.40;;
20004;SDS011;69160;45.498;-73.582;2023-08-17T09:26:21;2.97;;;2.67;;
20004;SDS011;69160;45.498;-73.582;2023-08-17T09:28:50;3.30;;;3.00;;
20004;SDS011;69160;45.498;-73.582;2023-08-17T09:31:23;3.93;;;3.30;;
20004;SDS011;69160;45.498;-73.582;2023-08-17T09:33:50;3.27;;;2.97;;
20004;SDS011;69160;45.498;-73.582;2023-08-17T09:36:20;3.13;;;2.80;;
20004;SDS011;69160;45.498;-73.582;2023-08-17T09:38:48;3.27;;;2.97;;
20004;SDS011;69160;45.498;-73.582;2023-08-17T09:41:18;3.13;;;2.83;;
20004;SDS011;69160;45.498;-73.582;2023-08-17T09:43:45;3.10;;;2.67;;
20004;SDS011;69160;45.498;-73.582;2023-08-17T09:46:12;3.40;;;2.70;;
20004;SDS011;69160;45.498;-73.582;2023-08-17T09:48:38;3.40;;;2.93;;
20004;SDS011;69160;45.498;-73.582;2023-08-17T09:51:05;4.83;;;3.20;;
20004;SDS011;69160;45.498;-73.582;2023-08-17T09:53:34;4.70;;;3.80;;
20004;SDS011;69160;45.498;-73.582;2023-08-17T09:56:04;3.67;;;3.07;;
20004;SDS011;69160;45.498;-73.582;2023-08-17T09:58:36;4.70;;;3.80;;
20004;SDS011;69160;45.498;-73.582;2023-08-17T10:01:03;3.73;;;3.30;;
20004;SDS011;69160;45.498;-73.582;2023-08-17T10:03:33;3.93;;;3.53;;
20004;SDS011;69160;45.498;-73.582;2023-08-17T10:06:04;2.53;;;2.33;;
20004;SDS011;69160;45.498;-73.582;2023-08-17T10:08:33;8.63;;;3.63;;
20004;SDS011;69160;45.498;-73.582;2023-08-17T10:11:04;3.83;;;3.43;;
20004;SDS011;69160;45.498;-73.582;2023-08-17T10:13:35;6.13;;;5.53;;
20004;SDS011;69160;45.498;-73.582;2023-08-17T10:16:08;7.53;;;6.80;;
20004;SDS011;69160;45.498;-73.582;2023-08-17T10:21:46;7.87;;;7.07;;
20004;SDS011;69160;45.498;-73.582;2023-08-17T10:24:36;8.50;;;7.63;;
20004;SDS011;69160;45.498;-73.582;2023-08-17T10:27:04;9.17;;;7.90;;
20004;SDS011;69160;45.498;-73.582;2023-08-17T10:29:31;9.20;;;8.30;;
20004;SDS011;69160;45.498;-73.582;2023-08-17T10:31:59;9.63;;;7.80;;
20004;SDS011;69160;45.498;-73.582;2023-08-17T10:34:26;15.03;;;8.87;;
20004;SDS011;69160;45.498;-73.582;2023-08-17T10:36:53;9.60;;;7.30;;
20004;SDS011;69160;45.498;-73.582;2023-08-17T10:39:23;5.47;;;4.97;;
20004;SDS011;69160;45.498;-73.582;2023-08-17T10:41:51;6.10;;;5.53;;
20004;SDS011;69160;45.498;-73.582;2023-08-17T10:44:37;8.40;;;7.60;;
20004;SDS011;69160;45.498;-73.582;2023-08-17T10:47:27;9.30;;;8.27;;
20004;SDS011;69160;45.498;-73.582;2023-08-17T10:50:06;8.33;;;7.47;;
20004;SDS011;69160;45.498;-73.582;2023-08-17T10:52:47;7.13;;;5.53;;
20004;SDS011;69160;45.498;-73.582;2023-08-17T10:55:14;8.50;;;7.60;;
20004;SDS011;69160;45.498;-73.582;2023-08-17T10:57:42;7.70;;;7.00;;
20004;SDS011;69160;45.498;-73.582;2023-08-17T11:00:16;10.17;;;8.30;;
20004;SDS011;69160;45.498;-73.582;2023-08-17T11:02:43;10.50;;;8.57;;
20004;SDS011;69160;45.498;-73.582;2023-08-17T11:05:10;10.53;;;9.47;;
20004;SDS011;69160;45.498;-73.582;2023-08-17T11:07:43;9.60;;;8.60;;
20004;SDS011;69160;45.498;-73.582;2023-08-17T11:10:26;10.70;;;8.67;;
20004;SDS011;69160;45.498;-73.582;2023-08-17T11:12:54;10.60;;;9.17;;
20004;SDS011;69160;45.498;-73.582;2023-08-17T11:15:37;9.73;;;8.73;;
20004;SDS011;69160;45.498;-73.582;2023-08-17T11:18:07;10.73;;;8.63;;
20004;SDS011;69160;45.498;-73.582;2023-08-17T11:20:34;9.80;;;7.77;;
20004;SDS011;69160;45.498;-73.582;2023-08-17T11:23:03;8.00;;;7.17;;
20004;SDS011;69160;45.498;-73.582;2023-08-17T11:25:31;9.63;;;8.17;;
20004;SDS011;69160;45.498;-73.582;2023-08-17T11:27:58;8.93;;;7.00;;
20004;SDS011;69160;45.498;-73.582;2023-08-17T11:30:28;8.30;;;7.37;;
20004;SDS011;69160;45.498;-73.582;2023-08-17T11:32:55;8.50;;;7.47;;
20004;SDS011;69160;45.498;-73.582;2023-08-17T11:35:22;8.03;;;7.23;;
20004;SDS011;69160;45.498;-73.582;2023-08-17T11:37:49;7.77;;;7.00;;
20004;SDS011;69160;45.498;-73.582;2023-08-17T11:40:15;7.13;;;6.43;;
20004;SDS011;69160;45.498;-73.582;2023-08-17T11:42:42;8.10;;;6.60;;
20004;SDS011;69160;45.498;-73.582;2023-08-17T11:45:08;7.40;;;6.70;;
20004;SDS011;69160;45.498;-73.582;2023-08-17T11:47:38;8.90;;;7.17;;
20004;SDS011;69160;45.498;-73.582;2023-08-17T11:50:06;6.63;;;6.03;;
20004;SDS011;69160;45.498;-73.582;2023-08-17T11:52:34;6.67;;;5.97;;
20004;SDS011;69160;45.498;-73.582;2023-08-17T11:55:04;6.70;;;5.80;;
20004;SDS011;69160;45.498;-73.582;2023-08-17T11:57:35;6.10;;;5.57;;
20004;SDS011;69160;45.498;-73.582;2023-08-17T12:00:03;7.87;;;6.20;;
20004;SDS011;69160;45.498;-73.582;2023-08-17T12:02:37;5.90;;;5.40;;
20004;SDS011;69160;45.498;-73.582;2023-08-17T12:05:07;6.57;;;5.90;;
20004;SDS011;69160;45.498;-73.582;2023-08-17T12:07:35;8.93;;;6.37;;
20004;SDS011;69160;45.498;-73.582;2023-08-17T12:10:04;8.07;;;5.70;;
20004;SDS011;69160;45.498;-73.582;2023-08-17T12:12:30;8.30;;;6.23;;
20004;SDS011;69160;45.498;-73.582;2023-08-17T12:15:01;8.10;;;5.37;;
20004;SDS011;69160;45.498;-73.582;2023-08-17T12:17:29;7.20;;;5.13;;
20004;SDS011;69160;45.498;-73.582;2023-08-17T12:19:55;7.03;;;5.20;;
20004;SDS011;69160;45.498;-73.582;2023-08-17T12:22:24;6.93;;;4.70;;
20004;SDS011;69160;45.498;-73.582;2023-08-17T12:24:51;22.40;;;13.73;;
20004;SDS011;69160;45.498;-73.582;2023-08-17T12:27:18;21.40;;;11.67;;
20004;SDS011;69160;45.498;-73.582;2023-08-17T12:29:47;17.57;;;9.73;;
20004;SDS011;69160;45.498;-73.582;2023-08-17T12:32:17;9.97;;;6.90;;
20004;SDS011;69160;45.498;-73.582;2023-08-17T12:34:45;9.13;;;6.13;;
20004;SDS011;69160;45.498;-73.582;2023-08-17T12:37:12;9.63;;;6.90;;
20004;SDS011;69160;45.498;-73.582;2023-08-17T12:39:43;7.20;;;6.20;;
20004;SDS011;69160;45.498;-73.582;2023-08-17T12:42:09;9.67;;;6.03;;
20004;SDS011;69160;45.498;-73.582;2023-08-17T12:44:35;7.63;;;5.93;;
20004;SDS011;69160;45.498;-73.582;2023-08-17T12:47:02;8.63;;;5.50;;
20004;SDS011;69160;45.498;-73.582;2023-08-17T12:49:28;6.30;;;5.00;;
20004;SDS011;69160;45.498;-73.582;2023-08-17T12:51:54;6.03;;;4.40;;
20004;SDS011;69160;45.498;-73.582;2023-08-17T12:54:20;7.27;;;4.93;;
20004;SDS011;69160;45.498;-73.582;2023-08-17T12:56:46;7.23;;;5.60;;
20004;SDS011;69160;45.498;-73.582;2023-08-17T12:59:12;7.57;;;4.40;;
20004;SDS011;69160;45.498;-73.582;2023-08-17T13:01:39;5.03;;;4.50;;
20004;SDS011;69160;45.498;-73.582;2023-08-17T13:04:05;5.10;;;4.60;;
20004;SDS011;69160;45.498;-73.582;2023-08-17T13:06:31;6.47;;;4.47;;
20004;SDS011;69160;45.498;-73.582;2023-08-17T13:08:58;6.80;;;4.67;;
20004;SDS011;69160;45.498;-73.582;2023-08-17T13:11:24;5.87;;;5.07;;
20004;SDS011;69160;45.498;-73.582;2023-08-17T13:13:50;4.90;;;4.40;;
20004;SDS011;69160;45.498;-73.582;2023-08-17T13:16:16;8.67;;;4.30;;
20004;SDS011;69160;45.498;-73.582;2023-08-17T13:18:42;5.43;;;4.00;;
20004;SDS011;69160;45.498;-73.582;2023-08-17T13:21:08;9.37;;;4.83;;
20004;SDS011;69160;45.498;-73.582;2023-08-17T13:23:35;4.30;;;3.80;;
20004;SDS011;69160;45.498;-73.582;2023-08-17T13:26:01;6.20;;;3.80;;
20004;SDS011;69160;45.498;-73.582;2023-08-17T13:28:27;5.67;;;4.00;;
20004;SDS011;69160;45.498;-73.582;2023-08-17T13:30:53;4.30;;;3.90;;
20004;SDS011;69160;45.498;-73.582;2023-08-17T13:33:19;4.70;;;4.20;;
20004;SDS011;69160;45.498;-73.582;2023-08-17T13:35:45;5.97;;;4.50;;
20004;SDS011;69160;45.498;-73.582;2023-08-17T13:38:11;7.90;;;4.20;;
20004;SDS011;69160;45.498;-73.582;2023-08-17T13:40:38;4.47;;;4.03;;
20004;SDS011;69160;45.498;-73.582;2023-08-17T13:43:04;6.47;;;5.00;;
20004;SDS011;69160;45.498;-73.582;2023-08-17T13:45:37;6.17;;;4.27;;
20004;SDS011;69160;45.498;-73.582;2023-08-17T13:48:05;6.13;;;4.40;;
20004;SDS011;69160;45.498;-73.582;2023-08-17T13:50:36;9.67;;;4.60;;
20004;SDS011;69160;45.498;-73.582;2023-08-17T13:53:04;6.53;;;4.10;;
20004;SDS011;69160;45.498;-73.582;2023-08-17T13:55:31;7.47;;;4.10;;
20004;SDS011;69160;45.498;-73.582;2023-08-17T13:57:57;12.70;;;4.40;;
20004;SDS011;69160;45.498;-73.582;2023-08-17T14:00:23;10.00;;;5.30;;
20004;SDS011;69160;45.498;-73.582;2023-08-17T14:02:51;5.93;;;4.73;;
20004;SDS011;69160;45.498;-73.582;2023-08-17T14:05:18;11.27;;;4.23;;
20004;SDS011;69160;45.498;-73.582;2023-08-17T14:07:44;21.53;;;5.97;;
20004;SDS011;69160;45.498;-73.582;2023-08-17T14:10:11;15.40;;;6.17;;
20004;SDS011;69160;45.498;-73.582;2023-08-17T14:12:37;12.97;;;4.60;;
20004;SDS011;69160;45.498;-73.582;2023-08-17T14:15:03;7.47;;;4.60;;
20004;SDS011;69160;45.498;-73.582;2023-08-17T14:17:29;8.07;;;4.07;;
20004;SDS011;69160;45.498;-73.582;2023-08-17T14:19:55;8.70;;;4.47;;
20004;SDS011;69160;45.498;-73.582;2023-08-17T14:22:22;7.20;;;5.07;;
20004;SDS011;69160;45.498;-73.582;2023-08-17T14:24:48;9.80;;;4.50;;
20004;SDS011;69160;45.498;-73.582;2023-08-17T14:27:14;7.83;;;4.57;;
20004;SDS011;69160;45.498;-73.582;2023-08-17T14:29:40;8.60;;;4.43;;